Time;durP1;ratioP1;P1;durP2;ratioP2;P2;SDS_P1;SDS_P2;PMS_P1;PMS_P2;Temp;Humidity;BMP_temperature;BMP_pressure;BME280_temperature;BME280_humidity;BME280_pressure;Samples;Min_cycle;Max_cycle;Signal;HPM_P1;HPM_P2
2022/05/10 00:00:58;;;;;;;6.40;3.83;;;;;;;;;;5044205;28;20202;-81
2022/05/10 00:03:27;;;;;;;5.15;4.63;;;;;;;;;;5050206;28;20199;-82
2022/05/10 00:05:54;;;;;;;5.70;5.00;;;;;;;;;;5045562;28;20682;-81
2022/05/10 00:08:23;;;;;;;6.78;4.80;;;;;;;;;;5045422;28;20626;-81
2022/05/10 00:10:50;;;;;;;5.55;5.05;;;;;;;;;;5050496;28;20562;-81
2022/05/10 00:13:17;;;;;;;4.93;4.43;;;;;;;;;;5048643;28;20215;-82
2022/05/10 00:15:44;;;;;;;5.97;5.43;;;;;;;;;;5046897;28;20685;-83
2022/05/10 00:18:13;;;;;;;9.05;5.43;;;;;;;;;;5048684;28;20191;-82
2022/05/10 00:20:40;;;;;;;7.03;4.93;;;;;;;;;;5046787;28;20654;-81
2022/05/10 00:23:07;;;;;;;5.30;4.80;;;;;;;;;;5048117;28;20199;-82
2022/05/10 00:25:37;;;;;;;4.78;4.38;;;;;;;;;;5043876;28;20830;-81
2022/05/10 00:28:04;;;;;;;5.93;5.40;;;;;;;;;;5045670;28;20242;-81
2022/05/10 00:30:31;;;;;;;5.47;4.97;;;;;;;;;;5043260;28;20194;-80
2022/05/10 00:32:58;;;;;;;5.88;4.53;;;;;;;;;;5042160;28;20194;-81
2022/05/10 00:35:27;;;;;;;8.55;4.57;;;;;;;;;;5045534;28;20543;-81
2022/05/10 00:37:55;;;;;;;6.28;4.85;;;;;;;;;;5044631;28;20677;-81
2022/05/10 00:40:24;;;;;;;5.65;5.15;;;;;;;;;;5040959;28;20299;-83
2022/05/10 00:42:55;;;;;;;5.32;3.88;;;;;;;;;;5031206;28;20219;-83
2022/05/10 00:45:25;;;;;;;6.15;4.10;;;;;;;;;;5042972;28;20206;-83
2022/05/10 00:47:56;;;;;;;4.40;4.00;;;;;;;;;;5041195;28;20203;-83
2022/05/10 00:50:25;;;;;;;6.22;5.68;;;;;;;;;;5038559;28;20206;-83
2022/05/10 00:52:55;;;;;;;5.72;4.55;;;;;;;;;;5048858;28;20658;-83
2022/05/10 00:55:25;;;;;;;5.05;4.65;;;;;;;;;;5048866;28;20230;-83
2022/05/10 00:57:55;;;;;;;6.00;4.45;;;;;;;;;;5052745;28;20211;-83
2022/05/10 01:00:24;;;;;;;5.00;4.60;;;;;;;;;;5043477;28;20201;-83
2022/05/10 01:02:56;;;;;;;5.50;5.00;;;;;;;;;;5045359;28;20539;-82
2022/05/10 01:05:26;;;;;;;4.68;4.28;;;;;;;;;;5041652;28;20196;-82
2022/05/10 01:07:56;;;;;;;4.20;3.80;;;;;;;;;;5051804;28;20194;-83
2022/05/10 01:10:29;;;;;;;4.63;4.22;;;;;;;;;;5051121;28;20658;-83
2022/05/10 01:13:01;;;;;;;5.07;3.97;;;;;;;;;;5050669;28;20255;-83
2022/05/10 01:15:29;;;;;;;6.07;4.25;;;;;;;;;;5051501;28;20578;-83
2022/05/10 01:17:57;;;;;;;5.05;4.55;;;;;;;;;;5051579;28;20757;-83
2022/05/10 01:20:29;;;;;;;5.60;5.20;;;;;;;;;;5042113;28;20203;-83
2022/05/10 01:23:00;;;;;;;5.28;4.78;;;;;;;;;;5051145;28;20211;-83
2022/05/10 01:25:37;;;;;;;8.95;5.72;;;;;;;;;;5050771;28;20666;-83
2022/05/10 01:28:17;;;;;;;6.28;5.70;;;;;;;;;;5034035;28;20195;-83
2022/05/10 01:30:45;;;;;;;6.18;5.70;;;;;;;;;;5050914;28;20206;-82
2022/05/10 01:33:29;;;;;;;5.68;5.13;;;;;;;;;;5052326;28;20198;-82
2022/05/10 01:36:00;;;;;;;6.32;5.72;;;;;;;;;;5053026;28;20213;-82
2022/05/10 01:38:29;;;;;;;4.50;4.05;;;;;;;;;;5048590;28;20199;-82
2022/05/10 01:41:00;;;;;;;5.50;5.07;;;;;;;;;;5045986;28;20195;-82
2022/05/10 01:43:34;;;;;;;4.95;4.55;;;;;;;;;;5046152;28;20222;-82
2022/05/10 01:46:04;;;;;;;5.55;4.85;;;;;;;;;;5052121;28;20191;-83
2022/05/10 01:48:34;;;;;;;6.05;4.90;;;;;;;;;;5034325;28;20223;-82
2022/05/10 01:51:04;;;;;;;6.50;5.90;;;;;;;;;;5043785;28;20199;-82
2022/05/10 01:53:32;;;;;;;6.78;6.07;;;;;;;;;;5048891;28;20192;-82
2022/05/10 01:56:01;;;;;;;6.50;5.93;;;;;;;;;;5052318;28;20198;-82
2022/05/10 01:58:31;;;;;;;10.10;5.60;;;;;;;;;;5036944;28;20237;-82
2022/05/10 02:01:00;;;;;;;4.10;3.80;;;;;;;;;;5053759;28;20195;-82
2022/05/10 02:03:29;;;;;;;5.35;4.85;;;;;;;;;;5047990;28;20210;-82
2022/05/10 02:05:59;;;;;;;5.50;4.40;;;;;;;;;;5052947;28;20538;-82
2022/05/10 02:08:33;;;;;;;4.40;4.00;;;;;;;;;;5046026;28;20199;-81
2022/05/10 02:11:02;;;;;;;5.10;4.35;;;;;;;;;;5037563;28;20559;-81
2022/05/10 02:13:33;;;;;;;5.15;4.65;;;;;;;;;;5044677;28;20204;-82
2022/05/10 02:16:01;;;;;;;4.88;4.45;;;;;;;;;;5051250;28;20547;-83
2022/05/10 02:18:32;;;;;;;5.68;5.05;;;;;;;;;;5051149;28;20201;-83
2022/05/10 02:21:03;;;;;;;5.63;5.05;;;;;;;;;;5048102;28;20249;-80
2022/05/10 02:23:34;;;;;;;5.72;5.22;;;;;;;;;;5047519;28;20203;-80
2022/05/10 02:26:03;;;;;;;5.68;5.18;;;;;;;;;;5051884;28;20551;-83
2022/05/10 02:28:35;;;;;;;5.30;4.60;;;;;;;;;;5048307;28;20191;-84
2022/05/10 02:31:06;;;;;;;6.30;5.70;;;;;;;;;;5044874;28;20198;-82
2022/05/10 02:33:33;;;;;;;5.82;5.28;;;;;;;;;;5048871;28;20206;-82
2022/05/10 02:36:00;;;;;;;5.57;5.07;;;;;;;;;;5051313;28;20293;-81
2022/05/10 02:38:30;;;;;;;7.97;5.78;;;;;;;;;;5046113;28;20764;-82
2022/05/10 02:40:58;;;;;;;6.72;5.88;;;;;;;;;;5044804;28;20207;-82
2022/05/10 02:43:27;;;;;;;7.88;5.65;;;;;;;;;;5042029;28;20196;-82
2022/05/10 02:45:55;;;;;;;7.35;5.25;;;;;;;;;;5049812;28;20199;-82
2022/05/10 02:48:24;;;;;;;4.97;4.47;;;;;;;;;;5045393;28;20219;-83
2022/05/10 02:50:51;;;;;;;4.93;4.30;;;;;;;;;;5049641;28;20238;-83
2022/05/10 02:53:18;;;;;;;5.53;4.68;;;;;;;;;;5048838;28;20207;-84
2022/05/10 02:55:50;;;;;;;6.90;5.60;;;;;;;;;;5051461;28;20202;-83
2022/05/10 02:58:19;;;;;;;5.80;5.13;;;;;;;;;;5047892;28;20207;-82
2022/05/10 03:00:47;;;;;;;3.90;3.60;;;;;;;;;;5040120;28;20204;-83
2022/05/10 03:03:17;;;;;;;6.30;5.72;;;;;;;;;;5046310;28;20609;-83
2022/05/10 03:05:44;;;;;;;5.05;4.55;;;;;;;;;;5035234;28;20204;-82
2022/05/10 03:08:11;;;;;;;5.43;4.93;;;;;;;;;;5046191;28;20206;-83
2022/05/10 03:10:38;;;;;;;5.75;5.15;;;;;;;;;;5051670;28;20226;-82
2022/05/10 03:13:05;;;;;;;5.30;4.90;;;;;;;;;;5046440;28;20195;-83
2022/05/10 03:15:33;;;;;;;5.63;5.03;;;;;;;;;;5048493;28;20191;-84
2022/05/10 03:18:00;;;;;;;4.70;4.30;;;;;;;;;;5041415;28;20712;-84
2022/05/10 03:20:28;;;;;;;4.32;3.95;;;;;;;;;;5043211;28;20762;-84
2022/05/10 03:22:55;;;;;;;5.30;4.80;;;;;;;;;;5048532;28;20597;-83
2022/05/10 03:25:23;;;;;;;5.47;4.50;;;;;;;;;;5043506;28;20655;-88
2022/05/10 03:27:50;;;;;;;7.00;6.30;;;;;;;;;;5050205;28;20195;-83
2022/05/10 03:30:17;;;;;;;4.82;4.43;;;;;;;;;;5046742;28;20272;-84
2022/05/10 03:32:45;;;;;;;4.70;4.30;;;;;;;;;;5045014;28;20195;-83
2022/05/10 03:35:15;;;;;;;6.05;4.57;;;;;;;;;;5047898;28;20195;-83
2022/05/10 03:37:44;;;;;;;4.03;3.63;;;;;;;;;;5047239;28;20191;-83
2022/05/10 03:40:12;;;;;;;5.38;4.32;;;;;;;;;;5043011;28;20589;-82
2022/05/10 03:42:43;;;;;;;6.43;4.88;;;;;;;;;;5043409;28;20215;-83
2022/05/10 03:45:11;;;;;;;5.88;5.38;;;;;;;;;;5042975;28;20207;-83
2022/05/10 03:47:38;;;;;;;6.00;5.40;;;;;;;;;;5043892;28;20306;-83
2022/05/10 03:50:07;;;;;;;7.47;5.13;;;;;;;;;;5048748;28;20215;-83
2022/05/10 03:52:34;;;;;;;5.40;4.90;;;;;;;;;;5050104;28;20187;-85
2022/05/10 03:55:03;;;;;;;4.18;3.78;;;;;;;;;;5048493;28;20646;-83
2022/05/10 03:57:30;;;;;;;3.90;3.60;;;;;;;;;;5050173;28;20325;-82
2022/05/10 03:59:57;;;;;;;4.60;4.20;;;;;;;;;;5047172;28;20711;-83
2022/05/10 04:02:24;;;;;;;5.43;4.93;;;;;;;;;;5044292;28;20195;-83
2022/05/10 04:04:51;;;;;;;5.22;4.72;;;;;;;;;;5047513;28;20215;-83
2022/05/10 04:07:19;;;;;;;6.10;5.28;;;;;;;;;;5039682;28;20211;-84
2022/05/10 04:09:46;;;;;;;5.28;4.78;;;;;;;;;;5038352;28;20226;-83
2022/05/10 04:12:14;;;;;;;5.03;4.63;;;;;;;;;;5048017;28;20540;-84
2022/05/10 04:14:41;;;;;;;5.53;5.03;;;;;;;;;;5047326;28;20199;-83
2022/05/10 04:17:08;;;;;;;5.03;4.60;;;;;;;;;;5047686;28;20545;-83
2022/05/10 04:19:36;;;;;;;6.57;5.97;;;;;;;;;;5044285;28;20202;-83
2022/05/10 04:22:03;;;;;;;4.72;4.38;;;;;;;;;;5041522;28;20200;-83
2022/05/10 04:24:30;;;;;;;6.35;4.57;;;;;;;;;;5036589;28;20195;-83
2022/05/10 04:26:57;;;;;;;4.50;4.10;;;;;;;;;;5040367;28;20741;-83
2022/05/10 04:29:26;;;;;;;5.35;4.70;;;;;;;;;;5041202;28;20222;-83
2022/05/10 04:31:53;;;;;;;5.50;5.00;;;;;;;;;;5044582;28;20206;-83
2022/05/10 04:34:20;;;;;;;5.32;4.75;;;;;;;;;;5051840;28;20195;-84
2022/05/10 04:36:47;;;;;;;4.43;4.10;;;;;;;;;;5050769;28;20195;-83
2022/05/10 04:39:14;;;;;;;4.82;4.43;;;;;;;;;;5048803;28;20191;-83
2022/05/10 04:41:47;;;;;;;7.93;4.45;;;;;;;;;;5048641;28;20222;-83
2022/05/10 04:44:14;;;;;;;5.15;4.65;;;;;;;;;;5052774;28;20198;-83
2022/05/10 04:46:43;;;;;;;7.15;5.60;;;;;;;;;;5053496;28;20244;-82
2022/05/10 04:49:11;;;;;;;9.23;4.72;;;;;;;;;;5046551;28;20203;-82
2022/05/10 04:51:39;;;;;;;11.57;3.80;;;;;;;;;;5045250;28;20195;-82
2022/05/10 04:54:06;;;;;;;5.20;4.70;;;;;;;;;;5053564;28;20198;-83
2022/05/10 04:56:33;;;;;;;5.68;5.07;;;;;;;;;;5054119;28;20195;-83
2022/05/10 04:59:00;;;;;;;4.47;4.18;;;;;;;;;;5051488;28;20210;-83
2022/05/10 05:01:29;;;;;;;4.80;4.03;;;;;;;;;;5043358;28;20206;-83
2022/05/10 05:03:59;;;;;;;4.18;3.78;;;;;;;;;;5049121;28;20207;-82
2022/05/10 05:06:27;;;;;;;4.90;4.43;;;;;;;;;;5052061;28;20197;-83
2022/05/10 05:08:54;;;;;;;3.85;3.45;;;;;;;;;;5053175;28;20680;-82
2022/05/10 05:11:21;;;;;;;6.00;4.60;;;;;;;;;;5049061;28;20222;-84
2022/05/10 05:13:48;;;;;;;5.45;4.95;;;;;;;;;;5042322;28;20218;-84
2022/05/10 05:16:15;;;;;;;5.78;4.65;;;;;;;;;;5047293;28;20195;-84
2022/05/10 05:18:43;;;;;;;6.45;4.65;;;;;;;;;;5049195;28;20204;-83
2022/05/10 05:21:11;;;;;;;4.60;3.97;;;;;;;;;;5052608;28;20192;-83
2022/05/10 05:23:38;;;;;;;3.78;3.45;;;;;;;;;;5053052;28;20203;-84
2022/05/10 05:26:05;;;;;;;4.32;4.00;;;;;;;;;;5046676;28;20552;-81
2022/05/10 05:28:33;;;;;;;5.00;4.60;;;;;;;;;;5052447;28;20539;-82
2022/05/10 05:31:00;;;;;;;6.00;4.70;;;;;;;;;;5042503;28;20716;-81
2022/05/10 05:33:27;;;;;;;4.45;4.05;;;;;;;;;;5052944;28;20199;-82
2022/05/10 05:35:54;;;;;;;4.57;4.28;;;;;;;;;;5049855;28;20191;-81
2022/05/10 05:38:24;;;;;;;5.18;4.50;;;;;;;;;;5049745;28;20219;-81
2022/05/10 05:40:51;;;;;;;4.63;4.22;;;;;;;;;;5047906;28;20258;-81
2022/05/10 05:43:19;;;;;;;4.13;3.72;;;;;;;;;;5045694;28;20270;-82
2022/05/10 05:45:46;;;;;;;4.75;4.22;;;;;;;;;;5049918;28;20203;-82
2022/05/10 05:48:13;;;;;;;4.43;3.75;;;;;;;;;;5049462;28;20206;-82
2022/05/10 05:50:40;;;;;;;3.85;3.55;;;;;;;;;;5049336;28;20293;-82
2022/05/10 05:53:07;;;;;;;3.78;3.40;;;;;;;;;;5052954;28;20194;-82
2022/05/10 05:55:36;;;;;;;5.05;4.55;;;;;;;;;;5049580;28;20206;-82
2022/05/10 05:58:03;;;;;;;3.47;3.20;;;;;;;;;;5047151;28;20208;-83
2022/05/10 06:00:30;;;;;;;3.75;3.45;;;;;;;;;;5045006;28;20191;-83
2022/05/10 06:02:57;;;;;;;5.03;3.20;;;;;;;;;;5052478;28;20566;-82
2022/05/10 06:05:27;;;;;;;4.85;3.20;;;;;;;;;;5052149;28;20214;-82
2022/05/10 06:07:54;;;;;;;3.63;3.22;;;;;;;;;;5040862;28;20290;-83
2022/05/10 06:10:21;;;;;;;3.45;3.22;;;;;;;;;;5043421;28;20214;-81
2022/05/10 06:12:49;;;;;;;5.88;3.17;;;;;;;;;;5040792;28;20301;-83
2022/05/10 06:15:18;;;;;;;4.75;3.90;;;;;;;;;;5039434;28;20210;-81
2022/05/10 06:17:46;;;;;;;4.15;3.45;;;;;;;;;;5041605;28;20679;-80
2022/05/10 06:20:14;;;;;;;4.50;3.83;;;;;;;;;;5046271;28;20654;-79
2022/05/10 06:22:44;;;;;;;3.20;3.00;;;;;;;;;;5045979;28;20666;-78
2022/05/10 06:25:11;;;;;;;3.60;3.30;;;;;;;;;;5048517;28;20202;-79
2022/05/10 06:27:39;;;;;;;3.97;3.67;;;;;;;;;;5050706;28;20195;-81
2022/05/10 06:30:07;;;;;;;2.85;2.65;;;;;;;;;;5042288;28;20218;-79
2022/05/10 06:32:35;;;;;;;3.22;3.03;;;;;;;;;;5042294;28;20597;-79
2022/05/10 06:35:02;;;;;;;3.80;3.22;;;;;;;;;;5035501;28;20223;-79
2022/05/10 06:40:14;;;;;;;2.95;2.75;;;;;;;;;;5038974;28;20194;-79
2022/05/10 06:42:42;;;;;;;3.65;2.90;;;;;;;;;;5039553;28;20231;-80
2022/05/10 06:45:13;;;;;;;3.72;3.42;;;;;;;;;;5045363;28;20199;-79
2022/05/10 06:47:40;;;;;;;4.10;3.10;;;;;;;;;;5049758;28;20195;-79
2022/05/10 06:50:09;;;;;;;3.63;3.25;;;;;;;;;;5045041;28;20563;-80
2022/05/10 06:52:36;;;;;;;3.63;3.20;;;;;;;;;;5046899;28;20203;-80
2022/05/10 06:55:03;;;;;;;3.50;3.15;;;;;;;;;;5046076;28;20694;-80
2022/05/10 06:57:30;;;;;;;3.50;2.65;;;;;;;;;;5045045;28;20203;-80
2022/05/10 06:59:57;;;;;;;5.03;3.78;;;;;;;;;;5043735;28;20574;-80
2022/05/10 07:02:26;;;;;;;4.07;3.67;;;;;;;;;;5044897;28;20558;-80
2022/05/10 07:04:53;;;;;;;5.50;3.10;;;;;;;;;;5046965;28;20211;-80
2022/05/10 07:07:20;;;;;;;3.30;2.88;;;;;;;;;;5051188;28;20639;-79
2022/05/10 07:09:47;;;;;;;4.30;3.10;;;;;;;;;;5046796;28;20210;-80
2022/05/10 07:12:14;;;;;;;4.43;3.00;;;;;;;;;;5042009;28;20199;-80
2022/05/10 07:14:43;;;;;;;3.92;2.90;;;;;;;;;;5043257;28;20203;-81
2022/05/10 07:17:10;;;;;;;4.47;3.17;;;;;;;;;;5045730;28;20191;-81
2022/05/10 07:19:38;;;;;;;5.53;3.70;;;;;;;;;;5046837;28;20664;-79
2022/05/10 07:22:06;;;;;;;3.20;2.25;;;;;;;;;;5046960;28;20195;-79
2022/05/10 07:24:33;;;;;;;9.18;3.65;;;;;;;;;;5047453;28;20199;-80
2022/05/10 07:27:00;;;;;;;3.15;2.75;;;;;;;;;;5044709;28;20205;-80
2022/05/10 07:29:27;;;;;;;3.95;3.13;;;;;;;;;;5045469;28;20214;-79
2022/05/10 07:31:54;;;;;;;3.13;2.83;;;;;;;;;;5041891;28;20742;-79
2022/05/10 07:34:21;;;;;;;3.03;2.83;;;;;;;;;;5043773;28;20195;-79
2022/05/10 07:36:49;;;;;;;3.33;3.03;;;;;;;;;;5035220;28;20210;-80
2022/05/10 07:39:18;;;;;;;5.35;3.85;;;;;;;;;;5039020;28;20655;-79
2022/05/10 07:41:45;;;;;;;7.63;3.90;;;;;;;;;;5038470;28;20215;-79
2022/05/10 07:44:13;;;;;;;3.75;3.30;;;;;;;;;;5042096;28;20190;-79
2022/05/10 07:46:40;;;;;;;3.17;2.92;;;;;;;;;;5043232;28;20495;-79
2022/05/10 07:49:07;;;;;;;3.20;2.88;;;;;;;;;;5036830;28;20199;-79
2022/05/10 07:51:34;;;;;;;4.55;3.33;;;;;;;;;;5035041;28;20216;-79
2022/05/10 07:54:02;;;;;;;3.20;2.90;;;;;;;;;;5048722;28;20199;-79
2022/05/10 07:56:29;;;;;;;2.85;2.65;;;;;;;;;;5039348;28;20202;-79
2022/05/10 07:58:57;;;;;;;4.22;3.00;;;;;;;;;;5040240;28;21592;-79
2022/05/10 08:01:25;;;;;;;4.25;2.80;;;;;;;;;;5047218;28;20195;-79
2022/05/10 08:03:53;;;;;;;3.45;3.15;;;;;;;;;;5046876;28;20210;-80
2022/05/10 08:06:20;;;;;;;3.35;2.70;;;;;;;;;;5042199;28;20204;-80
2022/05/10 08:08:48;;;;;;;11.10;2.80;;;;;;;;;;5033571;28;20261;-79
2022/05/10 08:11:18;;;;;;;4.90;2.67;;;;;;;;;;5047296;28;20657;-79
2022/05/10 08:13:47;;;;;;;3.30;2.75;;;;;;;;;;5047396;28;20589;-80
2022/05/10 08:16:14;;;;;;;3.25;2.83;;;;;;;;;;5048138;28;20202;-79
2022/05/10 08:18:45;;;;;;;3.50;3.03;;;;;;;;;;5041493;28;20207;-79
2022/05/10 08:21:12;;;;;;;3.45;3.15;;;;;;;;;;5040088;28;20654;-78
2022/05/10 08:23:39;;;;;;;4.28;2.95;;;;;;;;;;5043577;28;20679;-78
2022/05/10 08:26:08;;;;;;;3.15;2.75;;;;;;;;;;5035053;28;20200;-79
2022/05/10 08:28:37;;;;;;;3.45;3.15;;;;;;;;;;5048142;28;20199;-78
2022/05/10 08:31:05;;;;;;;4.70;3.60;;;;;;;;;;5040402;28;20215;-81
2022/05/10 08:33:33;;;;;;;3.07;2.77;;;;;;;;;;5044966;28;20289;-80
2022/05/10 08:36:01;;;;;;;2.90;2.70;;;;;;;;;;5044669;28;20985;-78
2022/05/10 08:38:29;;;;;;;3.73;3.43;;;;;;;;;;5049602;28;20205;-79
2022/05/10 08:40:59;;;;;;;2.67;2.47;;;;;;;;;;5041096;28;21955;-77
2022/05/10 08:43:29;;;;;;;3.03;2.80;;;;;;;;;;5037443;28;20188;-78
2022/05/10 08:45:57;;;;;;;3.85;3.17;;;;;;;;;;5034174;28;20203;-78
2022/05/10 08:48:27;;;;;;;2.92;2.72;;;;;;;;;;5044188;28;21141;-79
2022/05/10 08:50:54;;;;;;;3.20;2.90;;;;;;;;;;5045747;28;21435;-81
2022/05/10 08:53:21;;;;;;;3.90;3.00;;;;;;;;;;5049844;28;20465;-82
2022/05/10 08:55:51;;;;;;;5.67;3.30;;;;;;;;;;5039005;28;20467;-80
2022/05/10 08:58:38;;;;;;;6.07;3.23;;;;;;;;;;5034883;28;20468;-80
2022/05/10 09:01:08;;;;;;;3.50;2.93;;;;;;;;;;5032733;28;20461;-80
2022/05/10 09:03:38;;;;;;;6.20;3.30;;;;;;;;;;5044798;28;20456;-80
2022/05/10 09:06:09;;;;;;;3.10;2.80;;;;;;;;;;5036152;28;20472;-81
2022/05/10 09:08:40;;;;;;;2.83;2.57;;;;;;;;;;5044408;28;20446;-80
2022/05/10 09:11:12;;;;;;;4.07;3.40;;;;;;;;;;5040028;28;20856;-80
2022/05/10 09:13:39;;;;;;;3.17;2.97;;;;;;;;;;5048396;28;20519;-79
2022/05/10 09:16:09;;;;;;;6.07;2.87;;;;;;;;;;5047489;28;20480;-80
2022/05/10 09:18:39;;;;;;;3.10;2.80;;;;;;;;;;5044042;28;20467;-80
2022/05/10 09:21:08;;;;;;;3.27;2.70;;;;;;;;;;5048396;28;20477;-81
2022/05/10 09:23:40;;;;;;;2.90;2.60;;;;;;;;;;5044362;28;20460;-80
2022/05/10 09:26:08;;;;;;;2.87;2.50;;;;;;;;;;5038054;28;20531;-83
2022/05/10 09:28:38;;;;;;;2.70;2.50;;;;;;;;;;5045421;28;20460;-82
2022/05/10 09:36:57;;;;;;;2.90;2.70;;;;;;;;;;5050006;28;20583;-84
2022/05/10 09:39:30;;;;;;;3.23;2.70;;;;;;;;;;5040881;28;20965;-83
2022/05/10 09:41:57;;;;;;;5.50;2.90;;;;;;;;;;5043182;28;20485;-83
2022/05/10 09:44:27;;;;;;;2.80;2.37;;;;;;;;;;5044986;28;20458;-82
2022/05/10 09:47:11;;;;;;;5.30;2.90;;;;;;;;;;5047204;28;20470;-83
2022/05/10 09:49:40;;;;;;;6.10;2.80;;;;;;;;;;5030978;28;21020;-81
2022/05/10 09:52:17;;;;;;;3.20;3.00;;;;;;;;;;5043517;28;20480;-83
2022/05/10 09:54:45;;;;;;;4.27;3.43;;;;;;;;;;5045440;28;20875;-80
2022/05/10 09:57:14;;;;;;;8.23;3.47;;;;;;;;;;5044671;28;20456;-82
2022/05/10 09:59:44;;;;;;;3.30;3.00;;;;;;;;;;5045586;28;20491;-80
2022/05/10 10:02:11;;;;;;;3.63;2.53;;;;;;;;;;5035139;28;20526;-83
2022/05/10 10:04:41;;;;;;;2.87;2.57;;;;;;;;;;5038253;28;20451;-83
2022/05/10 10:07:13;;;;;;;2.50;2.30;;;;;;;;;;5037471;28;20467;-83
2022/05/10 10:09:40;;;;;;;4.50;2.80;;;;;;;;;;5039956;28;20466;-84
2022/05/10 10:12:14;;;;;;;10.23;3.07;;;;;;;;;;5038322;28;20616;-84
2022/05/10 10:14:42;;;;;;;3.30;3.00;;;;;;;;;;5046630;28;20469;-86
2022/05/10 10:17:18;;;;;;;3.03;2.73;;;;;;;;;;5036045;28;21011;-84
2022/05/10 10:19:48;;;;;;;2.57;2.37;;;;;;;;;;5038490;28;20468;-83
2022/05/10 10:22:17;;;;;;;2.53;2.30;;;;;;;;;;5044095;28;20445;-79
2022/05/10 10:24:46;;;;;;;4.43;3.33;;;;;;;;;;5042119;28;20995;-83
2022/05/10 10:27:16;;;;;;;2.50;2.30;;;;;;;;;;5040214;28;20458;-83
2022/05/10 10:29:46;;;;;;;5.10;2.80;;;;;;;;;;5043694;28;20455;-83
2022/05/10 10:32:16;;;;;;;3.03;1.87;;;;;;;;;;5029353;28;20490;-82
2022/05/10 10:34:48;;;;;;;2.83;2.30;;;;;;;;;;5043472;28;20490;-85
2022/05/10 10:37:20;;;;;;;3.63;2.87;;;;;;;;;;5040152;28;20451;-81
2022/05/10 10:39:52;;;;;;;2.67;2.47;;;;;;;;;;5039820;28;21102;-88
2022/05/10 10:42:25;;;;;;;2.83;2.63;;;;;;;;;;5042046;28;20554;-85
2022/05/10 10:44:57;;;;;;;3.60;2.57;;;;;;;;;;5038974;28;20901;-85
2022/05/10 10:47:27;;;;;;;5.33;2.30;;;;;;;;;;5042969;28;20941;-88
2022/05/10 10:49:58;;;;;;;2.70;2.50;;;;;;;;;;5051229;28;20908;-85
2022/05/10 10:52:29;;;;;;;3.63;2.97;;;;;;;;;;5043071;28;20999;-81
2022/05/10 10:54:56;;;;;;;4.73;3.33;;;;;;;;;;5037860;28;20528;-85
2022/05/10 10:57:32;;;;;;;2.50;2.30;;;;;;;;;;5039005;28;20478;-82
2022/05/10 11:00:03;;;;;;;2.40;2.20;;;;;;;;;;5045661;28;20463;-85
2022/05/10 11:02:48;;;;;;;3.60;3.20;;;;;;;;;;5045884;28;20475;-83
2022/05/10 11:05:28;;;;;;;15.87;3.40;;;;;;;;;;5038760;28;20463;-83
2022/05/10 11:08:02;;;;;;;3.30;3.00;;;;;;;;;;5043761;28;20958;-81
2022/05/10 11:10:43;;;;;;;2.57;2.37;;;;;;;;;;5044733;28;20475;-84
2022/05/10 11:13:15;;;;;;;2.70;2.50;;;;;;;;;;5047957;28;20482;-91
2022/05/10 11:15:49;;;;;;;3.43;2.70;;;;;;;;;;5041640;28;20475;-83
2022/05/10 11:18:23;;;;;;;3.70;2.93;;;;;;;;;;5042072;28;20823;-83
2022/05/10 11:20:58;;;;;;;3.73;2.97;;;;;;;;;;5037513;28;20450;-83
2022/05/10 11:23:31;;;;;;;3.40;2.67;;;;;;;;;;5032661;28;20486;-84
2022/05/10 11:26:11;;;;;;;4.07;2.60;;;;;;;;;;5036772;28;20962;-82
2022/05/10 11:28:54;;;;;;;3.23;2.70;;;;;;;;;;5034720;28;21055;-83
2022/05/10 11:31:28;;;;;;;3.33;3.00;;;;;;;;;;5042661;28;20876;-84
2022/05/10 11:34:01;;;;;;;2.77;2.57;;;;;;;;;;5042264;28;20568;-84
2022/05/10 11:36:34;;;;;;;4.57;2.83;;;;;;;;;;5038987;28;20490;-83
2022/05/10 11:39:13;;;;;;;3.30;3.00;;;;;;;;;;5043588;28;20483;-86
2022/05/10 11:41:42;;;;;;;7.10;2.73;;;;;;;;;;5040665;28;20479;-82
2022/05/10 11:44:34;;;;;;;3.07;2.87;;;;;;;;;;5044128;28;20942;-83
2022/05/10 11:47:19;;;;;;;2.60;2.40;;;;;;;;;;5037443;28;20603;-84
2022/05/10 11:49:55;;;;;;;3.73;2.70;;;;;;;;;;5036145;28;20464;-84
2022/05/10 11:52:33;;;;;;;2.83;2.63;;;;;;;;;;5036336;28;21018;-84
2022/05/10 11:55:06;;;;;;;3.67;2.90;;;;;;;;;;5035825;28;20472;-82
2022/05/10 11:57:35;;;;;;;2.97;2.70;;;;;;;;;;5031798;28;20468;-81
2022/05/10 12:00:20;;;;;;;2.77;2.50;;;;;;;;;;5035510;28;20460;-83
2022/05/10 12:02:49;;;;;;;2.97;2.67;;;;;;;;;;5034173;28;20799;-81
2022/05/10 12:05:23;;;;;;;2.47;2.20;;;;;;;;;;5041512;28;20598;-83
2022/05/10 12:07:50;;;;;;;3.10;2.80;;;;;;;;;;5045153;28;20498;-80
2022/05/10 12:10:31;;;;;;;2.93;2.63;;;;;;;;;;5032771;28;20468;-82
2022/05/10 12:13:02;;;;;;;4.60;2.80;;;;;;;;;;5031428;28;20496;-83
2022/05/10 12:21:20;;;;;;;7.40;3.47;;;;;;;;;;5036255;28;20454;-84
2022/05/10 12:24:17;;;;;;;4.70;2.80;;;;;;;;;;5041442;28;20559;-82
2022/05/10 12:26:47;;;;;;;3.40;2.90;;;;;;;;;;5041464;28;20967;-81
2022/05/10 12:29:34;;;;;;;2.50;2.30;;;;;;;;;;5038312;28;20455;-83
2022/05/10 12:32:02;;;;;;;4.00;2.80;;;;;;;;;;5034300;28;20479;-81
2022/05/10 12:34:49;;;;;;;2.83;2.63;;;;;;;;;;5029194;28;20666;-81
2022/05/10 12:37:36;;;;;;;4.30;2.97;;;;;;;;;;5036622;28;20473;-82
2022/05/10 12:40:05;;;;;;;2.83;2.20;;;;;;;;;;5034884;28;20531;-83
2022/05/10 12:42:37;;;;;;;5.47;3.30;;;;;;;;;;5039104;28;20485;-82
2022/05/10 12:45:11;;;;;;;2.87;2.40;;;;;;;;;;5034860;28;20959;-83
2022/05/10 12:47:50;;;;;;;3.43;3.13;;;;;;;;;;5038919;28;20894;-88
2022/05/10 12:50:22;;;;;;;3.60;3.27;;;;;;;;;;5030908;28;20870;-85
2022/05/10 12:52:49;;;;;;;7.20;3.37;;;;;;;;;;5035347;28;20482;-86
2022/05/10 12:55:20;;;;;;;3.40;3.10;;;;;;;;;;5045602;28;20460;-86
2022/05/10 12:57:52;;;;;;;2.73;2.47;;;;;;;;;;5042690;28;20469;-85
2022/05/10 13:00:22;;;;;;;2.97;2.67;;;;;;;;;;5040228;28;20462;-81
2022/05/10 13:02:51;;;;;;;3.10;2.83;;;;;;;;;;5038069;28;21147;-81
2022/05/10 13:05:20;;;;;;;5.50;3.20;;;;;;;;;;5042548;28;20464;-86
2022/05/10 13:08:02;;;;;;;2.97;2.67;;;;;;;;;;5043198;28;20460;-83
2022/05/10 13:10:31;;;;;;;2.90;2.27;;;;;;;;;;5039460;28;20475;-83
2022/05/10 13:13:02;;;;;;;3.20;2.90;;;;;;;;;;5050171;28;20488;-83
2022/05/10 13:15:30;;;;;;;3.23;2.83;;;;;;;;;;5041194;28;20824;-82
2022/05/10 13:17:59;;;;;;;3.47;2.57;;;;;;;;;;5043184;28;20537;-81
2022/05/10 13:20:28;;;;;;;2.70;2.50;;;;;;;;;;5039006;28;20461;-83
2022/05/10 13:22:56;;;;;;;3.90;3.00;;;;;;;;;;5044824;28;20954;-82
2022/05/10 13:25:28;;;;;;;3.00;2.70;;;;;;;;;;5042880;28;20464;-84
2022/05/10 13:28:09;;;;;;;2.53;2.33;;;;;;;;;;5040604;28;20989;-82
2022/05/10 13:30:36;;;;;;;3.73;2.87;;;;;;;;;;5039211;28;20469;-82
2022/05/10 13:33:03;;;;;;;4.90;2.50;;;;;;;;;;5038242;28;20532;-82
2022/05/10 13:35:32;;;;;;;4.27;2.80;;;;;;;;;;5049726;28;20480;-82
2022/05/10 13:38:00;;;;;;;3.20;2.90;;;;;;;;;;5045595;28;21073;-81
2022/05/10 13:40:29;;;;;;;3.33;3.10;;;;;;;;;;5039127;28;20466;-82
2022/05/10 13:42:58;;;;;;;2.97;2.67;;;;;;;;;;5048240;28;20484;-82
2022/05/10 13:45:28;;;;;;;3.57;3.27;;;;;;;;;;5045994;28;20464;-84
2022/05/10 13:47:59;;;;;;;5.70;2.30;;;;;;;;;;5038938;28;20469;-83
2022/05/10 13:50:27;;;;;;;2.60;2.40;;;;;;;;;;5048969;28;20806;-83
2022/05/10 13:52:57;;;;;;;3.60;2.50;;;;;;;;;;5046589;28;20488;-84
2022/05/10 13:55:25;;;;;;;2.80;2.60;;;;;;;;;;5046210;28;20460;-83
2022/05/10 13:57:53;;;;;;;4.13;3.20;;;;;;;;;;5036692;28;20959;-84
2022/05/10 14:00:23;;;;;;;4.63;2.80;;;;;;;;;;5034119;28;20473;-83
2022/05/10 14:02:54;;;;;;;5.93;2.60;;;;;;;;;;5044529;28;20494;-81
2022/05/10 14:05:21;;;;;;;2.70;2.50;;;;;;;;;;5045743;28;20987;-82
2022/05/10 14:07:49;;;;;;;4.10;2.90;;;;;;;;;;5045196;28;20903;-83
2022/05/10 14:10:18;;;;;;;2.43;2.23;;;;;;;;;;5041230;28;21047;-82
2022/05/10 14:12:49;;;;;;;4.13;3.67;;;;;;;;;;5046216;28;20480;-82
2022/05/10 14:15:20;;;;;;;3.30;2.90;;;;;;;;;;5045422;28;20570;-80
2022/05/10 14:17:52;;;;;;;3.13;2.83;;;;;;;;;;5042783;28;20460;-83
2022/05/10 14:20:24;;;;;;;3.60;3.20;;;;;;;;;;5037468;28;20461;-83
2022/05/10 14:22:54;;;;;;;4.97;2.83;;;;;;;;;;5039109;28;20540;-82
2022/05/10 14:25:22;;;;;;;3.67;3.30;;;;;;;;;;5035266;28;20458;-83
2022/05/10 14:28:00;;;;;;;5.10;3.07;;;;;;;;;;5049483;28;20488;-82
2022/05/10 14:30:27;;;;;;;2.63;2.43;;;;;;;;;;5042425;28;20550;-84
2022/05/10 14:32:55;;;;;;;5.43;3.10;;;;;;;;;;5038054;28;20555;-81
2022/05/10 14:35:30;;;;;;;2.97;2.63;;;;;;;;;;5041514;28;20827;-82
2022/05/10 14:38:00;;;;;;;3.03;2.73;;;;;;;;;;5038201;28;20465;-84
2022/05/10 14:40:28;;;;;;;5.70;2.77;;;;;;;;;;5044555;28;20465;-82
2022/05/10 14:43:00;;;;;;;4.13;3.10;;;;;;;;;;5045151;28;20462;-84
2022/05/10 14:45:36;;;;;;;7.90;2.73;;;;;;;;;;5035438;28;20461;-82
2022/05/10 14:48:19;;;;;;;3.87;3.00;;;;;;;;;;5037958;28;20468;-84
2022/05/10 14:50:51;;;;;;;3.43;3.13;;;;;;;;;;5040700;28;20766;-84
2022/05/10 14:53:20;;;;;;;3.80;3.07;;;;;;;;;;5039655;28;20535;-85
2022/05/10 14:55:50;;;;;;;2.47;2.27;;;;;;;;;;5045924;28;20542;-82
2022/05/10 14:58:24;;;;;;;4.83;3.07;;;;;;;;;;5038692;28;20476;-84
2022/05/10 15:01:00;;;;;;;2.97;2.77;;;;;;;;;;5031161;28;20476;-82
2022/05/10 15:03:27;;;;;;;4.50;3.00;;;;;;;;;;5044330;28;20445;-82
2022/05/10 15:05:56;;;;;;;3.07;2.70;;;;;;;;;;5039987;28;20445;-81
2022/05/10 15:08:25;;;;;;;4.80;2.80;;;;;;;;;;5035625;28;20475;-81
2022/05/10 15:10:53;;;;;;;3.77;3.10;;;;;;;;;;5047743;28;20515;-81
2022/05/10 15:13:22;;;;;;;4.10;2.70;;;;;;;;;;5042260;28;20827;-82